createdAt,value
2022-11-09T00:01:50.089Z,15.43
2022-11-09T00:04:18.321Z,14.17
2022-11-09T00:06:46.635Z,14.67
2022-11-09T00:09:14.970Z,16.20
2022-11-09T00:11:44.612Z,15.47
2022-11-09T00:14:15.651Z,14.63
2022-11-09T00:16:43.933Z,15.37
2022-11-09T00:19:18.204Z,15.33
2022-11-09T00:22:12.343Z,14.97
2022-11-09T00:24:40.563Z,14.07
2022-11-09T00:27:12.891Z,14.23
2022-11-09T00:29:44.838Z,14.60
2022-11-09T00:32:13.144Z,14.20
2022-11-09T00:34:41.393Z,15.90
2022-11-09T00:37:14.676Z,14.67
2022-11-09T00:39:43.936Z,13.80
2022-11-09T00:42:13.511Z,13.67
2022-11-09T00:44:41.770Z,14.10
2022-11-09T00:47:09.980Z,15.03
2022-11-09T00:49:38.204Z,14.50
2022-11-09T00:52:06.616Z,13.93
2022-11-09T00:54:34.878Z,15.93
2022-11-09T00:57:03.114Z,15.23
2022-11-09T00:59:32.700Z,15.73
2022-11-09T01:02:00.886Z,15.83
2022-11-09T01:04:29.136Z,15.23
2022-11-09T01:06:57.571Z,14.93
2022-11-09T01:09:25.918Z,15.80
2022-11-09T01:11:54.388Z,16.50
2022-11-09T01:14:22.869Z,15.03
2022-11-09T01:16:52.467Z,16.53
2022-11-09T01:19:20.731Z,15.87
2022-11-09T01:21:48.951Z,15.93
2022-11-09T01:24:17.140Z,15.23
2022-11-09T01:26:45.415Z,15.10
2022-11-09T01:29:13.620Z,15.03
2022-11-09T01:31:41.839Z,14.93
2022-11-09T01:34:36.764Z,15.97
2022-11-09T01:37:20.065Z,15.23
2022-11-09T01:39:48.272Z,15.93
2022-11-09T01:42:16.784Z,14.77
2022-11-09T01:44:45.185Z,14.33
2022-11-09T01:47:18.236Z,14.80
2022-11-09T01:49:53.098Z,15.03
2022-11-09T01:52:25.135Z,15.27
2022-11-09T01:54:58.583Z,16.47
2022-11-09T01:57:29.229Z,15.60
2022-11-09T02:00:02.852Z,15.90
2022-11-09T02:02:31.087Z,16.33
2022-11-09T02:05:06.710Z,15.03
2022-11-09T02:07:36.423Z,17.30
2022-11-09T02:10:08.654Z,14.70
2022-11-09T02:12:37.546Z,15.40
2022-11-09T02:15:10.604Z,15.37
2022-11-09T02:17:40.306Z,15.30
2022-11-09T02:20:12.072Z,15.57
2022-11-09T02:22:41.561Z,16.03
2022-11-09T02:25:11.070Z,15.77
2022-11-09T02:30:23.634Z,16.20
2022-11-09T02:32:51.819Z,15.63
2022-11-09T02:35:21.513Z,16.87
2022-11-09T02:37:50.658Z,16.83
2022-11-09T02:40:23.620Z,16.90
2022-11-09T02:42:51.885Z,16.13
2022-11-09T02:45:20.268Z,16.77
2022-11-09T02:47:48.499Z,16.20
2022-11-09T02:50:17.018Z,16.27
2022-11-09T02:52:46.681Z,15.90
2022-11-09T02:55:15.001Z,16.53
2022-11-09T02:57:43.270Z,16.60
2022-11-09T03:00:12.442Z,16.33
2022-11-09T03:02:40.964Z,16.53
2022-11-09T03:05:09.993Z,15.30
2022-11-09T03:07:38.256Z,16.23
2022-11-09T03:10:08.759Z,15.90
2022-11-09T03:12:36.984Z,16.47
2022-11-09T03:15:08.561Z,17.10
2022-11-09T03:17:37.542Z,17.97
2022-11-09T03:20:06.464Z,16.27
2022-11-09T03:22:34.746Z,16.67
2022-11-09T03:25:02.972Z,15.63
2022-11-09T03:27:32.622Z,16.20
2022-11-09T03:30:00.833Z,16.77
2022-11-09T03:32:29.102Z,16.77
2022-11-09T03:34:57.324Z,16.50
2022-11-09T03:37:25.623Z,16.83
2022-11-09T03:39:53.894Z,16.00
2022-11-09T03:42:22.111Z,18.33
2022-11-09T03:44:51.753Z,17.13
2022-11-09T03:47:19.925Z,17.33
2022-11-09T03:49:48.125Z,16.00
2022-11-09T03:52:16.347Z,16.50
2022-11-09T03:54:44.600Z,17.30
2022-11-09T03:57:12.846Z,17.13
2022-11-09T04:00:08.952Z,17.43
2022-11-09T04:02:42.157Z,17.17
2022-11-09T04:05:35.537Z,16.40
2022-11-09T04:08:03.775Z,16.83
2022-11-09T04:10:32.546Z,15.47
2022-11-09T04:13:01.998Z,17.03
2022-11-09T04:15:56.705Z,18.67
2022-11-09T04:18:24.977Z,17.30
2022-11-09T04:20:53.197Z,17.20
2022-11-09T04:23:21.710Z,17.97
2022-11-09T04:25:50.215Z,17.53
2022-11-09T04:28:18.474Z,17.70
2022-11-09T04:30:46.779Z,16.90
2022-11-09T04:33:16.501Z,17.93
2022-11-09T04:35:44.876Z,17.40
2022-11-09T04:38:14.730Z,17.20
2022-11-09T04:40:43.142Z,17.63
2022-11-09T04:43:16.016Z,17.33
2022-11-09T04:45:44.509Z,17.07
2022-11-09T04:48:13.306Z,17.77
2022-11-09T04:50:42.957Z,17.47
2022-11-09T04:53:13.230Z,17.37
2022-11-09T04:55:42.447Z,17.63
2022-11-09T04:58:10.794Z,18.40
2022-11-09T05:00:39.488Z,17.83
2022-11-09T05:03:08.681Z,18.30
2022-11-09T05:05:40.087Z,18.40
2022-11-09T05:08:11.364Z,17.67
2022-11-09T05:10:39.783Z,18.07
2022-11-09T05:13:33.631Z,18.03
2022-11-09T05:16:02.554Z,17.27
2022-11-09T05:18:30.760Z,17.57
2022-11-09T05:21:00.254Z,18.83
2022-11-09T05:23:48.884Z,18.00
2022-11-09T05:26:17.221Z,17.47
2022-11-09T05:28:45.871Z,18.97
2022-11-09T05:31:14.172Z,19.03
2022-11-09T05:33:42.382Z,18.63
2022-11-09T05:36:10.774Z,19.87
2022-11-09T05:38:40.430Z,19.47
2022-11-09T05:41:08.941Z,18.70
2022-11-09T05:43:37.161Z,19.60
2022-11-09T05:46:06.727Z,19.03
2022-11-09T05:48:35.131Z,19.30
2022-11-09T05:51:04.306Z,18.37
2022-11-09T05:53:32.800Z,19.37
2022-11-09T05:56:05.679Z,19.97
2022-11-09T05:58:36.406Z,18.87
2022-11-09T06:01:06.241Z,18.67
2022-11-09T06:03:34.499Z,19.50
2022-11-09T06:06:08.032Z,20.70
2022-11-09T06:08:36.846Z,19.50
2022-11-09T06:11:08.349Z,20.10
2022-11-09T06:13:36.607Z,19.20
2022-11-09T06:16:06.358Z,18.97
2022-11-09T06:18:36.398Z,20.10
2022-11-09T06:21:06.475Z,22.03
2022-11-09T06:23:34.712Z,22.23
2022-11-09T06:26:06.451Z,21.03
2022-11-09T06:28:36.156Z,20.90
2022-11-09T06:31:06.211Z,21.97
2022-11-09T06:33:36.017Z,24.43
2022-11-09T06:36:06.647Z,23.37
2022-11-09T06:38:35.055Z,22.93
2022-11-09T06:41:03.492Z,23.00
2022-11-09T06:43:31.713Z,20.87
2022-11-09T06:46:04.432Z,22.20
2022-11-09T06:48:32.713Z,21.70
2022-11-09T06:51:01.767Z,23.63
2022-11-09T06:53:30.882Z,22.03
2022-11-09T06:56:00.068Z,19.77
2022-11-09T06:58:30.272Z,23.83
2022-11-09T07:00:58.751Z,21.80
2022-11-09T07:03:28.386Z,21.47
2022-11-09T07:05:56.876Z,21.57
2022-11-09T07:08:25.106Z,23.63
2022-11-09T07:10:53.533Z,24.23
2022-11-09T07:13:22.002Z,22.17
2022-11-09T07:15:55.562Z,22.27
2022-11-09T07:18:24.092Z,25.53
2022-11-09T07:21:12.846Z,25.77
2022-11-09T07:23:42.990Z,23.27
2022-11-09T07:26:11.276Z,24.10
2022-11-09T07:29:04.962Z,22.50
2022-11-09T07:31:33.171Z,25.20
2022-11-09T07:34:04.793Z,23.83
2022-11-09T07:36:36.739Z,25.43
2022-11-09T07:39:23.842Z,25.03
2022-11-09T07:41:52.287Z,27.13
2022-11-09T07:44:20.509Z,25.87
2022-11-09T07:46:49.800Z,24.23
2022-11-09T07:49:19.093Z,25.63
2022-11-09T07:51:48.714Z,25.40
2022-11-09T07:54:17.002Z,26.17
2022-11-09T07:56:45.240Z,26.67
2022-11-09T07:59:13.565Z,24.00
2022-11-09T08:01:41.858Z,24.47
2022-11-09T08:04:10.849Z,24.80
2022-11-09T08:06:39.277Z,25.03
2022-11-09T08:09:09.010Z,24.87
2022-11-09T08:11:37.190Z,24.03
2022-11-09T08:14:05.434Z,24.07
2022-11-09T08:16:37.770Z,25.07
2022-11-09T08:19:08.963Z,24.37
2022-11-09T08:21:37.387Z,21.80
2022-11-09T08:24:06.779Z,21.83
2022-11-09T08:26:36.337Z,22.30
2022-11-09T08:29:04.624Z,21.73
2022-11-09T08:31:32.856Z,21.77
2022-11-09T08:34:01.061Z,22.73
2022-11-09T08:36:29.932Z,23.60
2022-11-09T08:38:59.313Z,21.97
2022-11-09T08:41:27.516Z,21.37
2022-11-09T08:43:57.135Z,22.40
2022-11-09T08:46:25.379Z,22.60
2022-11-09T08:48:53.646Z,23.57
2022-11-09T08:51:21.882Z,21.80
2022-11-09T08:53:50.778Z,23.70
2022-11-09T08:56:19.450Z,20.97
2022-11-09T08:58:47.965Z,23.57
2022-11-09T09:01:17.854Z,23.07
2022-11-09T09:03:46.787Z,23.30
2022-11-09T09:06:15.042Z,21.87
2022-11-09T09:08:43.239Z,22.43
2022-11-09T09:11:11.448Z,23.77
2022-11-09T09:13:43.311Z,21.63
2022-11-09T09:16:14.009Z,22.67
2022-11-09T09:18:44.310Z,21.33
2022-11-09T09:21:13.533Z,21.90
2022-11-09T09:23:41.871Z,22.30
2022-11-09T09:26:10.140Z,21.63
2022-11-09T09:28:39.069Z,22.07
2022-11-09T09:31:07.671Z,22.70
2022-11-09T09:33:36.146Z,20.87
2022-11-09T09:36:06.578Z,21.50
2022-11-09T09:38:34.884Z,23.53
2022-11-09T09:41:05.113Z,21.63
2022-11-09T09:43:42.585Z,22.07
2022-11-09T09:46:19.876Z,22.43
2022-11-09T09:48:52.744Z,22.00
2022-11-09T09:51:26.386Z,21.60
2022-11-09T09:54:25.240Z,22.37
2022-11-09T09:56:57.142Z,22.13
2022-11-09T09:59:35.009Z,22.70
2022-11-09T10:02:03.458Z,22.40
2022-11-09T10:04:37.387Z,20.93
2022-11-09T10:07:14.664Z,21.30
2022-11-09T10:10:05.170Z,20.87
2022-11-09T10:12:44.789Z,21.37
2022-11-09T10:15:28.113Z,22.73
2022-11-09T10:18:31.553Z,22.20
2022-11-09T10:21:12.560Z,21.03
2022-11-09T10:23:58.544Z,20.40
2022-11-09T10:26:39.972Z,21.57
2022-11-09T10:29:21.442Z,19.97
2022-11-09T10:31:52.285Z,22.70
2022-11-09T10:34:22.713Z,21.27
2022-11-09T10:36:59.834Z,22.13
2022-11-09T10:39:40.184Z,21.47
2022-11-09T10:42:11.512Z,21.17
2022-11-09T10:44:39.877Z,21.03
2022-11-09T10:47:11.861Z,21.90
2022-11-09T10:49:41.308Z,21.47
2022-11-09T10:52:32.449Z,21.17
2022-11-09T10:55:25.398Z,22.00
2022-11-09T10:57:59.970Z,20.40
2022-11-09T11:00:57.948Z,20.97
2022-11-09T11:03:26.548Z,22.17
2022-11-09T11:05:59.571Z,21.80
2022-11-09T11:08:32.348Z,21.17
2022-11-09T11:11:33.845Z,21.73
2022-11-09T11:14:17.188Z,21.87
2022-11-09T11:16:50.778Z,21.40
2022-11-09T11:19:34.915Z,20.57
2022-11-09T11:22:27.528Z,21.37
2022-11-09T11:24:58.125Z,20.73
2022-11-09T11:27:38.196Z,21.33
2022-11-09T11:30:12.761Z,20.43
2022-11-09T11:32:47.072Z,22.03
2022-11-09T11:35:31.541Z,22.37
2022-11-09T11:38:11.468Z,22.07
2022-11-09T11:40:46.143Z,20.17
2022-11-09T11:43:35.449Z,21.23
2022-11-09T11:46:12.443Z,22.87
2022-11-09T11:49:05.500Z,19.33
2022-11-09T11:51:41.416Z,21.03
2022-11-09T11:54:18.672Z,21.67
2022-11-09T11:56:51.105Z,20.43
2022-11-09T11:59:48.443Z,22.60
2022-11-09T12:02:33.887Z,21.83
2022-11-09T12:05:26.105Z,21.97
2022-11-09T12:07:59.810Z,20.80
2022-11-09T12:10:39.884Z,20.27
2022-11-09T12:13:18.554Z,20.10
2022-11-09T12:15:57.913Z,22.63
2022-11-09T12:18:40.374Z,20.40
2022-11-09T12:21:17.036Z,21.87
2022-11-09T12:24:06.798Z,22.17
2022-11-09T12:27:10.989Z,23.10
2022-11-09T12:29:49.971Z,20.23
2022-11-09T12:32:25.796Z,21.47
2022-11-09T12:35:12.935Z,21.63
2022-11-09T12:37:47.135Z,21.50
2022-11-09T12:40:24.027Z,21.13
2022-11-09T12:42:57.975Z,20.07
2022-11-09T12:45:52.421Z,20.47
2022-11-09T12:48:26.727Z,20.90
2022-11-09T12:50:55.503Z,21.30
2022-11-09T12:53:26.593Z,19.07
2022-11-09T12:55:59.180Z,20.10
2022-11-09T12:58:30.280Z,20.63
2022-11-09T13:00:59.946Z,21.90
2022-11-09T13:03:32.097Z,19.77
2022-11-09T13:06:18.431Z,20.30
2022-11-09T13:09:04.178Z,20.43
2022-11-09T13:11:38.938Z,19.97
2022-11-09T13:14:39.295Z,21.77
2022-11-09T13:17:44.527Z,22.17
2022-11-09T13:20:55.438Z,21.20
2022-11-09T13:26:44.515Z,18.60
2022-11-09T13:29:25.074Z,19.60
2022-11-09T13:32:25.598Z,19.83
2022-11-09T13:35:00.106Z,22.93
2022-11-09T13:37:49.395Z,21.10
2022-11-09T13:41:04.448Z,20.03
2022-11-09T13:43:36.160Z,20.67
2022-11-09T13:46:06.804Z,20.87
2022-11-09T13:48:40.298Z,21.20
2022-11-09T13:51:11.519Z,20.90
2022-11-09T13:53:58.986Z,20.43
2022-11-09T13:56:33.196Z,21.27
2022-11-09T13:59:11.039Z,19.47
2022-11-09T14:01:49.109Z,19.37
2022-11-09T14:04:45.009Z,18.30
2022-11-09T14:07:19.178Z,17.67
2022-11-09T14:09:59.190Z,19.17
2022-11-09T14:12:43.092Z,22.20
2022-11-09T14:15:20.900Z,20.57
2022-11-09T14:17:59.649Z,21.87
2022-11-09T14:20:38.078Z,19.00
2022-11-09T14:23:17.029Z,17.47
2022-11-09T14:25:49.246Z,17.67
2022-11-09T14:28:23.528Z,18.63
2022-11-09T14:30:51.803Z,17.87
2022-11-09T14:33:23.554Z,18.93
2022-11-09T14:35:53.675Z,22.70
2022-11-09T14:38:25.125Z,34.63
2022-11-09T14:40:55.415Z,27.37
2022-11-09T14:43:29.401Z,27.80
2022-11-09T14:46:01.096Z,34.03
2022-11-09T14:48:30.901Z,51.60
2022-11-09T14:51:01.822Z,53.93
2022-11-09T14:53:33.105Z,43.10
2022-11-09T14:56:05.078Z,30.87
2022-11-09T14:58:36.399Z,28.93
2022-11-09T15:01:09.806Z,28.47
2022-11-09T15:03:38.116Z,25.53
2022-11-09T15:06:31.212Z,23.27
2022-11-09T15:09:02.914Z,23.00
2022-11-09T15:11:35.442Z,22.50
2022-11-09T15:14:16.374Z,23.43
2022-11-09T15:16:46.799Z,23.30
2022-11-09T15:19:29.519Z,23.80
2022-11-09T15:21:57.851Z,25.87
2022-11-09T15:24:28.392Z,26.53
2022-11-09T15:26:58.828Z,24.17
2022-11-09T15:29:40.027Z,22.37
2022-11-09T15:32:17.243Z,24.80
2022-11-09T15:34:55.374Z,24.63
2022-11-09T15:37:28.229Z,24.93
2022-11-09T15:39:57.024Z,26.30
2022-11-09T15:42:32.868Z,27.60
2022-11-09T15:45:01.365Z,24.87
2022-11-09T15:47:33.518Z,24.73
2022-11-09T15:50:07.862Z,23.77
2022-11-09T15:52:36.085Z,23.50
2022-11-09T15:55:04.429Z,24.00
2022-11-09T15:57:34.037Z,24.23
2022-11-09T16:00:09.496Z,24.80
2022-11-09T16:02:40.877Z,24.70
2022-11-09T16:05:09.704Z,27.50
2022-11-09T16:07:37.947Z,29.47
2022-11-09T16:10:06.853Z,27.00
2022-11-09T16:12:58.255Z,26.33
2022-11-09T16:15:27.156Z,25.43
2022-11-09T16:17:55.406Z,25.80
2022-11-09T16:20:23.800Z,25.47
2022-11-09T16:22:52.017Z,24.17
2022-11-09T16:25:20.965Z,25.10
2022-11-09T16:27:50.943Z,24.63
2022-11-09T16:30:46.536Z,22.77
2022-11-09T16:33:15.213Z,24.27
2022-11-09T16:35:43.468Z,24.37
2022-11-09T16:38:11.777Z,25.10
2022-11-09T16:40:40.143Z,26.33
2022-11-09T16:43:08.516Z,25.43
2022-11-09T16:45:36.811Z,25.97
2022-11-09T16:48:12.832Z,27.57
2022-11-09T16:50:41.104Z,25.43
2022-11-09T16:53:09.290Z,25.77
2022-11-09T16:55:37.984Z,24.13
2022-11-09T16:58:06.168Z,25.27
2022-11-09T17:03:24.105Z,31.57
2022-11-09T17:05:52.310Z,25.77
2022-11-09T17:08:20.750Z,25.73
2022-11-09T17:10:49.120Z,26.73
2022-11-09T17:13:17.552Z,25.67
2022-11-09T17:15:47.760Z,26.37
2022-11-09T17:18:16.776Z,26.87
2022-11-09T17:20:47.969Z,26.17
2022-11-09T17:23:18.774Z,25.70
2022-11-09T17:25:56.363Z,27.73
2022-11-09T17:28:50.146Z,27.23
2022-11-09T17:31:20.670Z,26.67
2022-11-09T17:33:48.923Z,25.70
2022-11-09T17:36:29.918Z,26.20
2022-11-09T17:39:08.058Z,25.77
2022-11-09T17:41:42.324Z,26.00
2022-11-09T17:44:11.023Z,25.57
2022-11-09T17:46:39.249Z,27.07
2022-11-09T17:49:10.289Z,27.63
2022-11-09T17:51:40.186Z,25.67
2022-11-09T17:54:08.378Z,27.50
2022-11-09T17:56:36.619Z,28.53
2022-11-09T17:59:06.232Z,26.33
2022-11-09T18:01:41.484Z,26.03
2022-11-09T18:04:11.819Z,37.80
2022-11-09T18:06:41.800Z,37.10
2022-11-09T18:09:41.299Z,33.63
2022-11-09T18:11:59.272Z,29.73
2022-11-09T18:14:27.463Z,29.07
2022-11-09T18:16:55.673Z,28.83
2022-11-09T18:19:23.910Z,28.77
2022-11-09T18:21:53.551Z,26.67
2022-11-09T18:24:21.752Z,27.23
2022-11-09T18:26:49.995Z,27.00
2022-11-09T18:29:18.204Z,26.47
2022-11-09T18:31:46.484Z,26.93
2022-11-09T18:34:14.814Z,26.97
2022-11-09T18:36:42.990Z,28.53
2022-11-09T18:39:12.587Z,29.13
2022-11-09T18:41:40.795Z,29.30
2022-11-09T18:44:09.514Z,27.00
2022-11-09T18:46:37.766Z,32.07
2022-11-09T18:49:11.514Z,29.47
2022-11-09T18:51:42.370Z,26.47
2022-11-09T18:54:11.969Z,26.77
2022-11-09T18:56:40.229Z,27.27
2022-11-09T18:59:08.472Z,25.50
2022-11-09T19:02:02.133Z,26.40
2022-11-09T19:04:30.364Z,26.17
2022-11-09T19:06:58.586Z,26.80
2022-11-09T19:09:35.040Z,28.00
2022-11-09T19:12:05.996Z,28.07
2022-11-09T19:14:40.559Z,26.03
2022-11-09T19:17:13.041Z,26.27
2022-11-09T19:19:42.266Z,25.80
2022-11-09T19:22:16.907Z,26.73
2022-11-09T19:24:47.024Z,26.63
2022-11-09T19:27:15.257Z,27.00
2022-11-09T19:29:43.441Z,27.30
2022-11-09T19:32:11.632Z,27.20
2022-11-09T19:34:42.730Z,27.03
2022-11-09T19:37:11.138Z,28.97
2022-11-09T19:40:06.226Z,25.63
2022-11-09T19:42:34.462Z,27.40
2022-11-09T19:45:12.744Z,27.40
2022-11-09T19:47:41.230Z,27.23
2022-11-09T19:50:10.299Z,30.30
2022-11-09T19:52:38.877Z,29.60
2022-11-09T19:55:09.577Z,30.07
2022-11-09T19:57:37.805Z,30.23
2022-11-09T20:00:07.501Z,29.40
2022-11-09T20:02:35.706Z,28.77
2022-11-09T20:05:03.935Z,27.43
2022-11-09T20:07:33.250Z,27.23
2022-11-09T20:10:01.694Z,29.10
2022-11-09T20:12:57.154Z,28.93
2022-11-09T20:15:25.417Z,29.73
2022-11-09T20:18:20.626Z,29.93
2022-11-09T20:20:49.122Z,28.70
2022-11-09T20:23:21.575Z,26.70
2022-11-09T20:25:50.073Z,27.60
2022-11-09T20:28:20.018Z,28.77
2022-11-09T20:30:48.491Z,28.30
2022-11-09T20:33:17.133Z,30.57
2022-11-09T20:35:53.034Z,29.57
2022-11-09T20:38:21.526Z,27.17
2022-11-09T20:40:55.443Z,29.00
2022-11-09T20:43:25.930Z,30.50
2022-11-09T20:45:54.952Z,30.30
2022-11-09T20:48:47.106Z,31.23
2022-11-09T20:51:26.461Z,28.83
2022-11-09T20:53:54.717Z,29.03
2022-11-09T20:56:23.074Z,29.17
2022-11-09T20:58:52.640Z,30.50
2022-11-09T21:01:22.701Z,31.03
2022-11-09T21:03:52.257Z,30.77
2022-11-09T21:06:21.432Z,31.17
2022-11-09T21:08:52.294Z,32.13
2022-11-09T21:11:23.712Z,32.77
2022-11-09T21:13:54.684Z,31.70
2022-11-09T21:16:24.268Z,30.80
2022-11-09T21:18:52.517Z,31.83
2022-11-09T21:21:22.444Z,33.27
2022-11-09T21:24:08.552Z,34.10
2022-11-09T21:26:54.357Z,33.00
2022-11-09T21:29:43.227Z,34.17
2022-11-09T21:32:12.281Z,36.50
2022-11-09T21:34:40.784Z,35.87
2022-11-09T21:37:10.678Z,35.10
2022-11-09T21:39:38.901Z,35.53
2022-11-09T21:42:07.497Z,36.53
2022-11-09T21:44:37.250Z,35.73
2022-11-09T21:47:05.914Z,36.03
2022-11-09T21:49:34.604Z,33.53
2022-11-09T21:52:03.446Z,35.07
2022-11-09T21:54:31.762Z,35.07
2022-11-09T21:57:00.216Z,32.73
2022-11-09T21:59:28.468Z,32.77
2022-11-09T22:01:58.185Z,33.37
2022-11-09T22:04:50.997Z,33.40
2022-11-09T22:07:19.202Z,33.03
2022-11-09T22:10:09.276Z,33.93
2022-11-09T22:12:56.519Z,33.83
2022-11-09T22:15:41.911Z,33.40
2022-11-09T22:21:24.258Z,32.80
2022-11-09T22:23:52.610Z,35.20
2022-11-09T22:26:49.039Z,34.57
2022-11-09T22:29:17.226Z,33.83
2022-11-09T22:31:45.403Z,33.93
2022-11-09T22:34:15.452Z,32.90
2022-11-09T22:36:43.649Z,34.07
2022-11-09T22:39:11.878Z,33.50
2022-11-09T22:41:41.125Z,33.30
2022-11-09T22:44:09.476Z,33.27
2022-11-09T22:46:37.728Z,33.20
2022-11-09T22:49:06.729Z,33.30
2022-11-09T22:51:36.533Z,34.70
2022-11-09T22:54:05.157Z,34.13
2022-11-09T22:56:33.347Z,32.10
2022-11-09T22:59:01.624Z,33.33
2022-11-09T23:01:29.959Z,33.37
2022-11-09T23:03:58.307Z,31.80
2022-11-09T23:06:33.727Z,34.83
2022-11-09T23:09:03.489Z,32.80
2022-11-09T23:11:31.726Z,32.80
2022-11-09T23:14:00.019Z,31.77
2022-11-09T23:16:36.440Z,31.60
2022-11-09T23:19:03.831Z,31.70
2022-11-09T23:21:33.925Z,32.13
2022-11-09T23:24:05.958Z,33.43
2022-11-09T23:26:34.181Z,33.00
2022-11-09T23:29:27.104Z,32.40
2022-11-09T23:31:57.199Z,32.00
2022-11-09T23:34:25.448Z,32.43
2022-11-09T23:36:53.719Z,31.43
2022-11-09T23:39:23.364Z,32.13
2022-11-09T23:42:17.328Z,34.37
2022-11-09T23:44:45.548Z,33.57
2022-11-09T23:47:30.986Z,33.37
2022-11-09T23:49:59.252Z,31.57
2022-11-09T23:52:27.509Z,33.33
2022-11-09T23:54:57.133Z,31.70
2022-11-09T23:57:25.371Z,32.67
